Time;durP1;ratioP1;P1;durP2;ratioP2;P2;SDS_P1;SDS_P2;PMS_P1;PMS_P2;Temp;Humidity;BMP_temperature;BMP_pressure;BME280_temperature;BME280_humidity;BME280_pressure;Samples;Min_cycle;Max_cycle;Signal;HPM_P1;HPM_P2
2022/03/05 00:00:49;;;;;;;27.25;18.35;;;;;;;6.03;43.83;98580.78;4916307;29;20028;-48
2022/03/05 00:03:15;;;;;;;27.40;19.77;;;;;;;5.82;44.90;98585.78;4914990;29;20035;-48
2022/03/05 00:05:41;;;;;;;27.50;17.08;;;;;;;5.77;45.23;98588.88;4914976;29;20028;-49
2022/03/05 00:08:08;;;;;;;25.08;19.10;;;;;;;5.78;45.66;98582.69;4914964;29;20024;-48
2022/03/05 00:10:35;;;;;;;26.48;19.75;;;;;;;5.78;45.35;98586.09;4914489;29;20028;-48
2022/03/05 00:13:01;;;;;;;27.98;20.70;;;;;;;5.71;45.61;98587.75;4914932;29;20032;-48
2022/03/05 00:15:28;;;;;;;28.67;19.27;;;;;;;5.63;46.05;98590.41;4914794;29;20080;-48
2022/03/05 00:17:54;;;;;;;29.67;19.27;;;;;;;5.50;45.58;98596.19;4916085;29;20024;-48
2022/03/05 00:20:22;;;;;;;28.50;20.33;;;;;;;5.51;46.58;98607.41;4916040;29;20084;-48
2022/03/05 00:22:52;;;;;;;28.58;18.60;;;;;;;5.64;46.33;98604.25;4914701;29;20490;-48
2022/03/05 00:25:19;;;;;;;28.10;20.23;;;;;;;5.66;46.28;98610.13;4915904;29;20029;-48
2022/03/05 00:27:45;;;;;;;26.48;20.15;;;;;;;5.48;47.22;98605.94;4915965;29;20031;-48
2022/03/05 00:30:11;;;;;;;24.92;18.70;;;;;;;5.34;47.33;98606.66;4915768;29;20056;-48
2022/03/05 00:32:37;;;;;;;28.83;19.50;;;;;;;5.33;47.36;98605.84;4915884;29;20039;-48
2022/03/05 00:35:04;;;;;;;25.83;18.30;;;;;;;5.31;47.00;98607.00;4915841;29;20020;-48
2022/03/05 00:37:30;;;;;;;26.45;18.90;;;;;;;5.24;47.25;98608.66;4915797;29;20063;-48
2022/03/05 00:39:55;;;;;;;26.77;18.60;;;;;;;5.23;47.04;98605.22;4915801;29;20055;-48
2022/03/05 00:42:21;;;;;;;28.23;18.15;;;;;;;5.25;47.65;98603.28;4915727;29;20513;-48
2022/03/05 00:44:47;;;;;;;26.00;17.63;;;;;;;5.25;47.73;98599.84;4915766;29;20032;-48
2022/03/05 00:47:12;;;;;;;26.95;19.63;;;;;;;5.25;47.50;98608.50;4915650;29;20032;-47
2022/03/05 00:49:38;;;;;;;34.33;19.38;;;;;;;5.22;48.21;98602.81;4915578;29;20398;-48
2022/03/05 00:52:04;;;;;;;31.45;18.75;;;;;;;5.28;47.95;98604.75;4913846;29;20031;-49
2022/03/05 00:54:30;;;;;;;34.00;22.33;;;;;;;5.12;48.44;98610.81;4915597;29;20509;-49
2022/03/05 00:56:55;;;;;;;28.60;20.80;;;;;;;5.03;48.81;98607.41;4915630;29;20032;-47
2022/03/05 00:59:21;;;;;;;28.52;21.65;;;;;;;5.00;48.92;98610.34;4914297;29;20028;-48
2022/03/05 01:01:47;;;;;;;27.88;20.70;;;;;;;4.91;48.87;98619.97;4914303;29;20032;-48
2022/03/05 01:04:12;;;;;;;34.60;20.83;;;;;;;4.95;48.63;98616.03;4914304;29;20064;-49
2022/03/05 01:06:38;;;;;;;27.77;18.45;;;;;;;5.00;48.75;98615.53;4914216;29;20059;-48
2022/03/05 01:09:05;;;;;;;28.55;17.63;;;;;;;5.09;48.26;98611.13;4915479;29;20024;-49
2022/03/05 01:11:32;;;;;;;25.38;17.23;;;;;;;5.02;48.67;98610.97;4913884;29;20044;-49
2022/03/05 01:13:58;;;;;;;28.05;18.10;;;;;;;4.94;48.57;98617.00;4915441;29;20056;-49
2022/03/05 01:16:24;;;;;;;27.60;19.92;;;;;;;4.98;48.86;98613.09;4915363;29;20076;-48
2022/03/05 01:18:50;;;;;;;28.25;17.95;;;;;;;4.94;49.00;98614.41;4914118;29;20447;-47
2022/03/05 01:21:16;;;;;;;26.80;18.50;;;;;;;4.93;49.34;98604.16;4915379;29;20025;-48
2022/03/05 01:23:42;;;;;;;28.20;19.02;;;;;;;4.94;49.15;98611.00;4915383;29;20402;-49
2022/03/05 01:26:08;;;;;;;28.17;17.15;;;;;;;5.02;48.99;98616.19;4915361;29;20020;-48
2022/03/05 01:28:34;;;;;;;26.95;18.77;;;;;;;5.07;48.59;98610.47;4915277;29;20483;-49
2022/03/05 01:31:00;;;;;;;36.65;24.80;;;;;;;5.06;48.89;98614.06;4915287;29;20076;-49
2022/03/05 01:33:26;;;;;;;29.25;21.75;;;;;;;5.08;48.52;98612.91;4915338;29;20040;-48
2022/03/05 01:35:52;;;;;;;29.73;20.73;;;;;;;5.17;48.40;98611.09;4915267;29;20028;-49
2022/03/05 01:38:18;;;;;;;29.65;17.55;;;;;;;5.26;48.06;98611.91;4913943;29;20099;-49
2022/03/05 01:40:45;;;;;;;23.77;18.52;;;;;;;5.30;48.44;98611.38;4915260;29;20028;-48
2022/03/05 01:43:11;;;;;;;29.80;16.77;;;;;;;5.42;47.73;98614.44;4915199;29;20020;-47
2022/03/05 01:45:38;;;;;;;25.95;19.63;;;;;;;5.32;47.99;98609.44;4915121;29;20032;-47
2022/03/05 01:48:04;;;;;;;30.05;18.33;;;;;;;5.39;48.14;98602.59;4915149;29;20060;-49
2022/03/05 01:50:30;;;;;;;28.98;17.83;;;;;;;5.46;47.41;98599.31;4913760;29;20043;-49
2022/03/05 01:52:55;;;;;;;30.23;20.65;;;;;;;5.25;48.49;98602.47;4913846;29;20028;-48
2022/03/05 01:55:23;;;;;;;31.95;21.60;;;;;;;4.99;50.10;98606.94;4913769;29;20029;-49
2022/03/05 01:57:49;;;;;;;43.05;22.35;;;;;;;4.95;49.72;98602.22;4915106;29;20024;-49
2022/03/05 02:00:15;;;;;;;27.67;17.45;;;;;;;4.88;49.00;98607.28;4914999;29;20036;-49
2022/03/05 02:02:43;;;;;;;27.98;18.27;;;;;;;4.62;49.36;98606.66;4915046;29;20442;-47
2022/03/05 02:05:09;;;;;;;27.60;16.98;;;;;;;4.58;49.90;98598.38;4917138;29;20593;-48
2022/03/05 02:07:36;;;;;;;30.60;20.27;;;;;;;4.54;50.15;98599.69;4918435;29;20040;-48
2022/03/05 02:10:04;;;;;;;26.38;17.95;;;;;;;4.62;49.44;98598.88;4918254;29;20028;-48
2022/03/05 02:12:31;;;;;;;29.58;19.55;;;;;;;4.51;49.50;98603.44;4916742;29;20052;-48
2022/03/05 02:15:01;;;;;;;35.00;23.65;;;;;;;4.43;49.88;98603.44;4918259;29;20103;-48
2022/03/05 02:17:28;;;;;;;34.88;21.83;;;;;;;4.49;49.82;98600.19;4918152;29;20095;-48
2022/03/05 02:19:57;;;;;;;28.20;19.05;;;;;;;4.51;49.67;98595.63;4916921;29;20131;-48
2022/03/05 02:22:24;;;;;;;29.15;18.45;;;;;;;4.45;49.37;98600.66;4918129;29;20486;-48
2022/03/05 02:25:03;;;;;;;26.77;20.65;;;;;;;4.23;49.89;98612.53;4918078;29;20071;-48
2022/03/05 02:27:30;;;;;;;27.58;16.63;;;;;;;4.16;50.16;98602.75;4918072;29;20028;-48
2022/03/05 02:29:56;;;;;;;27.98;19.20;;;;;;;4.08;50.48;98600.16;4917920;29;20107;-48
2022/03/05 02:32:23;;;;;;;28.23;18.30;;;;;;;4.06;50.60;98604.69;4917888;29;20075;-48
2022/03/05 02:34:49;;;;;;;35.30;21.60;;;;;;;4.04;50.54;98604.03;4916636;29;20510;-48
2022/03/05 02:37:16;;;;;;;28.98;19.25;;;;;;;3.80;50.52;98613.44;4917815;29;20035;-48
2022/03/05 02:39:43;;;;;;;24.77;16.67;;;;;;;3.71;51.21;98608.38;4916529;29;20039;-48
2022/03/05 02:42:10;;;;;;;28.25;18.10;;;;;;;3.68;51.54;98612.09;4916437;29;20035;-49
2022/03/05 02:44:36;;;;;;;30.35;19.60;;;;;;;3.64;51.91;98612.56;4917764;29;20172;-48
2022/03/05 02:47:03;;;;;;;29.38;17.65;;;;;;;3.70;51.58;98601.53;4916399;29;20039;-48
2022/03/05 02:49:29;;;;;;;27.33;18.20;;;;;;;3.63;51.77;98606.56;4917849;29;20160;-48
2022/03/05 02:51:54;;;;;;;29.67;20.92;;;;;;;3.62;51.78;98612.69;4916358;29;20111;-48
2022/03/05 02:54:20;;;;;;;26.98;16.80;;;;;;;3.47;51.85;98609.91;4917570;29;20020;-48
2022/03/05 02:56:46;;;;;;;30.83;20.58;;;;;;;3.41;52.39;98613.13;4916203;29;20024;-48
2022/03/05 02:59:12;;;;;;;34.03;20.92;;;;;;;3.42;52.04;98617.38;4917522;29;20032;-48
2022/03/05 03:01:38;;;;;;;27.52;19.08;;;;;;;3.38;52.28;98619.44;4916153;29;20116;-48
2022/03/05 03:04:04;;;;;;;33.10;18.52;;;;;;;3.34;52.55;98620.72;4917356;29;20107;-48
2022/03/05 03:06:30;;;;;;;27.25;17.48;;;;;;;3.45;52.71;98624.00;4917294;29;20039;-48
2022/03/05 03:08:55;;;;;;;31.23;19.58;;;;;;;3.58;52.54;98620.00;4917713;29;20179;-48
2022/03/05 03:11:21;;;;;;;26.33;18.63;;;;;;;3.82;52.06;98612.44;4916926;29;20059;-47
2022/03/05 03:13:47;;;;;;;28.00;19.25;;;;;;;3.81;51.54;98614.22;4915976;29;20036;-47
2022/03/05 03:16:13;;;;;;;27.30;18.00;;;;;;;3.77;51.51;98612.94;4916690;29;20398;-48
2022/03/05 03:18:39;;;;;;;31.15;20.63;;;;;;;3.63;51.45;98621.31;4917145;29;20027;-48
2022/03/05 03:21:05;;;;;;;28.23;20.45;;;;;;;3.47;52.24;98624.66;4917098;29;20406;-48
2022/03/05 03:23:30;;;;;;;26.90;16.92;;;;;;;3.42;51.95;98619.13;4915749;29;20087;-48
2022/03/05 03:25:56;;;;;;;28.73;18.42;;;;;;;3.49;52.29;98614.94;4915661;29;20032;-48
2022/03/05 03:28:22;;;;;;;26.30;16.92;;;;;;;3.47;52.16;98614.28;4915661;29;20052;-48
2022/03/05 03:30:47;;;;;;;30.77;19.70;;;;;;;3.38;52.47;98613.44;4915510;29;20024;-48
2022/03/05 03:33:13;;;;;;;27.25;18.60;;;;;;;3.39;52.44;98610.69;4916888;29;20038;-49
2022/03/05 03:35:39;;;;;;;28.73;20.10;;;;;;;3.41;52.72;98613.13;4915487;29;20498;-49
2022/03/05 03:38:05;;;;;;;32.15;21.77;;;;;;;3.51;52.85;98615.59;4916717;29;20031;-48
2022/03/05 03:40:30;;;;;;;27.75;19.13;;;;;;;3.65;52.14;98615.00;4915421;29;20126;-49
2022/03/05 03:42:56;;;;;;;24.63;17.65;;;;;;;3.80;51.58;98618.63;4915366;29;20068;-47
2022/03/05 03:45:22;;;;;;;27.35;17.40;;;;;;;3.55;51.87;98616.91;4915298;29;20031;-48
2022/03/05 03:47:51;;;;;;;28.88;17.25;;;;;;;3.27;52.65;98616.31;4916221;29;20410;-49
2022/03/05 03:50:19;;;;;;;30.45;18.95;;;;;;;3.19;53.01;98617.09;4915164;29;20537;-48
2022/03/05 03:52:45;;;;;;;29.80;18.58;;;;;;;3.20;52.52;98610.94;4916534;29;20039;-48
2022/03/05 03:55:14;;;;;;;30.42;20.10;;;;;;;3.21;52.59;98615.16;4916394;29;20028;-48
2022/03/05 03:57:40;;;;;;;29.52;19.20;;;;;;;3.18;53.08;98623.25;4916445;29;20025;-47
2022/03/05 04:00:09;;;;;;;27.10;17.75;;;;;;;3.40;52.64;98620.09;4915022;29;20028;-48
2022/03/05 04:02:35;;;;;;;29.17;18.30;;;;;;;3.36;52.17;98621.38;4915023;29;20036;-48
2022/03/05 04:05:00;;;;;;;30.63;19.02;;;;;;;3.33;52.44;98620.88;4915010;29;20406;-49
2022/03/05 04:10:10;;;;;;;30.27;19.40;;;;;;;3.22;52.18;98621.97;4916159;29;20036;-48
2022/03/05 04:12:36;;;;;;;25.80;19.08;;;;;;;3.17;52.70;98624.19;4914686;29;20440;-48
2022/03/05 04:15:03;;;;;;;31.42;19.65;;;;;;;3.15;52.27;98618.34;4914813;29;20039;-49
2022/03/05 04:17:30;;;;;;;28.25;20.05;;;;;;;3.26;52.71;98623.28;4914837;29;20028;-47
2022/03/05 04:19:55;;;;;;;33.92;18.23;;;;;;;3.29;52.19;98616.97;4914753;29;20418;-48
2022/03/05 04:22:21;;;;;;;28.83;20.33;;;;;;;3.20;52.22;98621.31;4914698;29;20028;-49
2022/03/05 04:24:47;;;;;;;36.42;20.38;;;;;;;3.08;52.85;98633.72;4914739;29;20111;-48
2022/03/05 04:27:13;;;;;;;26.40;16.92;;;;;;;2.98;52.93;98631.22;4913926;29;20020;-48
2022/03/05 04:29:39;;;;;;;28.13;18.23;;;;;;;2.87;53.30;98628.88;4915896;29;20030;-47
2022/03/05 04:32:05;;;;;;;25.27;16.50;;;;;;;2.80;53.70;98631.28;4914892;29;20028;-48
2022/03/05 04:34:31;;;;;;;26.63;21.70;;;;;;;2.78;53.98;98637.59;4914612;29;20075;-48
2022/03/05 04:36:57;;;;;;;27.60;21.00;;;;;;;2.83;54.33;98631.94;4915892;29;20558;-49
2022/03/05 04:39:22;;;;;;;32.60;21.02;;;;;;;2.99;53.87;98632.84;4915875;29;20438;-48
2022/03/05 04:41:48;;;;;;;30.55;19.63;;;;;;;3.07;53.28;98633.88;4914532;29;20030;-48
2022/03/05 04:44:14;;;;;;;25.00;18.80;;;;;;;3.02;53.10;98638.69;4914479;29;20032;-48
2022/03/05 04:46:40;;;;;;;31.23;18.17;;;;;;;2.92;52.97;98641.41;4914467;29;20024;-48
2022/03/05 04:49:06;;;;;;;24.98;17.35;;;;;;;2.78;53.27;98648.75;4914374;29;20115;-48
2022/03/05 04:51:31;;;;;;;31.45;18.80;;;;;;;2.63;53.51;98644.28;4914368;29;20036;-48
2022/03/05 04:53:57;;;;;;;31.30;20.45;;;;;;;2.54;53.91;98643.41;4914404;29;20405;-48
2022/03/05 04:56:23;;;;;;;31.92;19.30;;;;;;;2.49;54.06;98648.22;4914365;29;20028;-47
2022/03/05 04:58:49;;;;;;;30.27;20.27;;;;;;;2.37;54.70;98655.38;4914307;29;20111;-48
2022/03/05 05:01:15;;;;;;;30.30;21.55;;;;;;;2.31;55.39;98654.19;4914322;29;20024;-47
2022/03/05 05:03:41;;;;;;;32.63;19.83;;;;;;;2.55;54.63;98656.19;4914293;29;20524;-49
2022/03/05 05:06:06;;;;;;;33.00;21.98;;;;;;;2.53;54.60;98658.09;4914225;29;20553;-48
2022/03/05 05:08:33;;;;;;;30.88;21.13;;;;;;;2.41;54.40;98659.31;4914179;29;20040;-48
2022/03/05 05:10:59;;;;;;;28.13;19.58;;;;;;;2.20;54.94;98662.19;4913892;29;20095;-48
2022/03/05 05:13:24;;;;;;;33.15;21.50;;;;;;;2.13;55.15;98668.91;4915498;29;20107;-47
2022/03/05 05:15:50;;;;;;;29.95;20.63;;;;;;;2.08;55.52;98664.19;4914156;29;20163;-47
2022/03/05 05:18:16;;;;;;;30.95;18.88;;;;;;;2.10;55.30;98664.03;4914109;29;20028;-47
2022/03/05 05:20:42;;;;;;;30.67;19.15;;;;;;;2.17;55.23;98671.09;4914132;29;20032;-48
2022/03/05 05:23:07;;;;;;;34.75;19.85;;;;;;;2.05;54.87;98671.41;4915387;29;20034;-48
2022/03/05 05:25:33;;;;;;;38.33;19.95;;;;;;;1.95;55.19;98682.66;4914005;29;20028;-48
2022/03/05 05:27:59;;;;;;;31.48;19.58;;;;;;;1.87;55.55;98680.00;4914032;29;20513;-48
2022/03/05 05:30:24;;;;;;;35.22;21.08;;;;;;;1.79;55.98;98688.47;4913933;29;20028;-48
2022/03/05 05:32:50;;;;;;;34.92;18.00;;;;;;;1.72;55.57;98686.59;4914019;29;20029;-48
2022/03/05 05:35:16;;;;;;;31.63;19.30;;;;;;;1.71;56.12;98680.63;4913960;29;20042;-48
2022/03/05 05:37:42;;;;;;;31.35;21.30;;;;;;;1.76;56.32;98675.00;4914108;29;20088;-48
2022/03/05 05:40:08;;;;;;;27.70;19.58;;;;;;;1.92;56.00;98685.53;4917598;29;20498;-47
2022/03/05 05:42:34;;;;;;;28.40;16.52;;;;;;;2.10;55.66;98684.75;4917581;29;20032;-49
2022/03/05 05:45:00;;;;;;;37.13;20.33;;;;;;;2.06;54.90;98686.00;4918765;29;20047;-48
2022/03/05 05:47:26;;;;;;;27.42;17.08;;;;;;;1.87;55.83;98692.09;4917453;29;20095;-48
2022/03/05 05:49:52;;;;;;;32.03;19.95;;;;;;;1.78;55.57;98692.00;4917353;29;20032;-47
2022/03/05 05:52:18;;;;;;;32.75;19.80;;;;;;;1.90;56.64;98697.00;4917339;29;20059;-47
2022/03/05 05:54:45;;;;;;;28.98;20.65;;;;;;;1.88;55.71;98699.72;4918642;29;20443;-48
2022/03/05 05:57:10;;;;;;;30.70;20.05;;;;;;;1.83;56.26;98699.31;4918585;29;20025;-48
2022/03/05 05:59:37;;;;;;;29.45;18.92;;;;;;;1.97;56.00;98703.19;4917254;29;20497;-48
2022/03/05 06:02:03;;;;;;;31.42;18.52;;;;;;;2.09;55.85;98701.22;4917180;29;20020;-47
2022/03/05 06:04:29;;;;;;;32.17;19.00;;;;;;;2.14;55.35;98705.03;4918526;29;20111;-47
2022/03/05 06:06:55;;;;;;;30.70;19.80;;;;;;;2.06;55.34;98709.31;4917063;29;20475;-48
2022/03/05 06:09:21;;;;;;;33.92;19.77;;;;;;;2.03;55.18;98710.38;4917018;29;20131;-47
2022/03/05 06:11:47;;;;;;;33.15;20.33;;;;;;;1.89;55.86;98705.69;4916748;29;20048;-47
2022/03/05 06:14:13;;;;;;;27.58;18.55;;;;;;;1.97;55.66;98706.63;4916996;29;20112;-48
2022/03/05 06:16:39;;;;;;;29.35;17.75;;;;;;;1.96;55.24;98707.56;4916952;29;20525;-48
2022/03/05 06:19:04;;;;;;;32.35;18.73;;;;;;;1.97;56.04;98713.56;4916911;29;20028;-48
2022/03/05 06:21:30;;;;;;;39.70;21.33;;;;;;;2.01;55.79;98722.66;4917151;29;20034;-48
2022/03/05 06:23:56;;;;;;;29.38;19.50;;;;;;;2.28;55.56;98715.84;4918114;29;20028;-47
2022/03/05 06:26:21;;;;;;;29.52;17.10;;;;;;;2.65;55.15;98720.88;4916805;29;20115;-48
2022/03/05 06:28:47;;;;;;;30.83;19.27;;;;;;;3.09;53.78;98718.31;4916663;29;20028;-48
2022/03/05 06:31:13;;;;;;;27.35;17.98;;;;;;;3.57;52.13;98721.38;4916729;29;20028;-49
2022/03/05 06:33:39;;;;;;;27.15;18.05;;;;;;;3.93;50.92;98719.41;4916742;29;20024;-49
2022/03/05 06:36:05;;;;;;;35.72;20.13;;;;;;;4.11;49.96;98721.09;4918176;29;20036;-48
2022/03/05 06:38:31;;;;;;;29.73;19.45;;;;;;;4.58;49.76;98718.75;4916591;29;20063;-48
2022/03/05 06:40:56;;;;;;;28.67;18.15;;;;;;;4.83;48.81;98729.19;4916512;29;20056;-48
2022/03/05 06:43:22;;;;;;;29.42;17.83;;;;;;;5.18;47.79;98720.19;4916488;29;20024;-48
2022/03/05 06:45:48;;;;;;;36.25;20.73;;;;;;;4.96;47.63;98726.88;4917764;29;20032;-48
2022/03/05 06:48:14;;;;;;;34.55;19.13;;;;;;;4.71;48.16;98720.03;4916408;29;20071;-48
2022/03/05 06:50:40;;;;;;;32.35;20.23;;;;;;;4.51;48.57;98720.38;4915503;29;20039;-47
2022/03/05 06:53:05;;;;;;;34.50;19.27;;;;;;;4.40;49.30;98726.66;4917632;29;20020;-48
2022/03/05 06:55:32;;;;;;;35.97;21.58;;;;;;;4.34;49.01;98729.09;4917582;29;20554;-46
2022/03/05 06:57:57;;;;;;;35.30;19.83;;;;;;;4.25;49.24;98732.66;4917563;29;20394;-49
2022/03/05 07:00:23;;;;;;;34.00;19.45;;;;;;;4.14;49.97;98731.16;4917546;29;20032;-48
2022/03/05 07:02:49;;;;;;;32.10;20.67;;;;;;;4.15;49.75;98741.41;4916135;29;20024;-48
2022/03/05 07:05:16;;;;;;;29.02;19.92;;;;;;;4.20;49.69;98736.56;4916118;29;20031;-49
2022/03/05 07:07:42;;;;;;;29.00;18.55;;;;;;;4.33;49.38;98733.50;4916098;29;20020;-48
2022/03/05 07:10:11;;;;;;;32.08;20.67;;;;;;;4.46;49.14;98740.00;4915940;29;20032;-48
2022/03/05 07:12:38;;;;;;;33.38;21.13;;;;;;;4.57;49.13;98731.91;4917060;29;20119;-48
2022/03/05 07:15:05;;;;;;;29.88;19.90;;;;;;;4.75;49.11;98742.16;4917148;29;20035;-48
2022/03/05 07:17:30;;;;;;;28.88;19.80;;;;;;;5.31;49.56;98731.88;4915881;29;20595;-48
2022/03/05 07:19:56;;;;;;;32.10;20.77;;;;;;;6.44;46.96;98736.88;4917152;29;20118;-48
2022/03/05 07:22:23;;;;;;;32.95;21.95;;;;;;;7.54;45.59;98733.81;4917082;29;20032;-49
2022/03/05 07:24:49;;;;;;;32.90;19.98;;;;;;;8.73;43.47;98731.06;4917015;29;20055;-49
2022/03/05 07:27:16;;;;;;;36.53;20.17;;;;;;;9.72;41.86;98726.72;4916959;29;20036;-49
2022/03/05 07:29:43;;;;;;;27.73;19.25;;;;;;;10.32;39.61;98730.44;4916896;29;20078;-49
2022/03/05 07:32:10;;;;;;;29.77;21.50;;;;;;;10.59;37.31;98728.69;4915615;29;20419;-49
2022/03/05 07:34:36;;;;;;;28.88;20.42;;;;;;;10.68;36.34;98725.88;4915547;29;20025;-48
2022/03/05 07:37:03;;;;;;;28.60;20.42;;;;;;;11.05;36.39;98728.94;4915468;29;20028;-49
2022/03/05 07:39:28;;;;;;;29.05;19.88;;;;;;;11.49;35.84;98735.34;4915474;29;20607;-48
2022/03/05 07:41:54;;;;;;;34.13;20.60;;;;;;;11.85;34.80;98729.63;4916661;29;20166;-49
2022/03/05 07:44:20;;;;;;;29.17;21.30;;;;;;;12.25;33.79;98732.09;4916688;29;20179;-49
2022/03/05 07:46:46;;;;;;;28.30;20.10;;;;;;;11.87;33.85;98737.28;4915326;29;20034;-49
2022/03/05 07:49:12;;;;;;;30.33;20.67;;;;;;;11.33;34.77;98734.78;4916505;29;20024;-49
2022/03/05 07:51:38;;;;;;;26.10;20.15;;;;;;;10.57;36.01;98735.13;4916549;29;20406;-48
2022/03/05 07:54:04;;;;;;;30.73;21.98;;;;;;;10.18;36.48;98745.28;4915181;29;20032;-49
2022/03/05 07:56:30;;;;;;;32.25;22.10;;;;;;;9.93;37.21;98747.59;4915144;29;20438;-49
2022/03/05 07:58:56;;;;;;;36.78;21.30;;;;;;;10.04;37.09;98742.78;4915127;29;20047;-50
2022/03/05 08:01:22;;;;;;;29.73;20.27;;;;;;;10.62;37.27;98743.22;4915029;29;20091;-49
2022/03/05 08:03:47;;;;;;;35.05;27.50;;;;;;;11.79;34.96;98738.31;4915010;29;20110;-49
2022/03/05 08:06:14;;;;;;;32.20;24.25;;;;;;;12.00;34.73;98745.16;4915031;29;20537;-49
2022/03/05 08:08:39;;;;;;;33.22;28.42;;;;;;;12.77;34.01;98738.06;4916178;29;20020;-50
2022/03/05 08:11:05;;;;;;;36.08;22.40;;;;;;;12.89;33.07;98745.31;4915857;29;20051;-49
2022/03/05 08:13:31;;;;;;;27.35;21.15;;;;;;;13.30;32.54;98736.91;4916221;29;20028;-48
2022/03/05 08:15:57;;;;;;;33.35;21.60;;;;;;;13.27;32.35;98744.41;4916055;29;20111;-49
2022/03/05 08:18:23;;;;;;;32.38;25.48;;;;;;;13.91;31.02;98737.09;4916125;29;20064;-50
2022/03/05 08:20:49;;;;;;;27.42;21.50;;;;;;;13.64;30.93;98737.38;4914767;29;20032;-49
2022/03/05 08:23:15;;;;;;;33.42;21.55;;;;;;;13.98;30.42;98732.53;4914762;29;20454;-49
2022/03/05 08:25:41;;;;;;;24.52;19.70;;;;;;;13.99;30.23;98739.44;4914643;29;20025;-49
2022/03/05 08:28:07;;;;;;;26.85;20.83;;;;;;;13.41;30.33;98738.00;4914734;29;20087;-49
2022/03/05 08:30:33;;;;;;;36.08;21.70;;;;;;;13.11;30.83;98736.00;4914521;29;20063;-49
2022/03/05 08:33:00;;;;;;;25.50;20.23;;;;;;;14.05;30.45;98743.84;4915822;29;20466;-49
2022/03/05 08:35:27;;;;;;;27.73;20.20;;;;;;;14.86;29.21;98741.75;4914591;29;20119;-49
2022/03/05 08:37:53;;;;;;;26.73;20.65;;;;;;;14.89;28.82;98733.38;4915851;29;20490;-49
2022/03/05 08:40:20;;;;;;;27.60;23.20;;;;;;;14.90;28.46;98732.34;4914544;29;20035;-50
2022/03/05 08:42:48;;;;;;;32.03;25.58;;;;;;;14.80;28.33;98734.75;4915793;29;20059;-49
2022/03/05 08:45:14;;;;;;;34.00;25.92;;;;;;;14.69;28.50;98738.97;4915740;29;20024;-49
2022/03/05 08:47:41;;;;;;;31.27;21.85;;;;;;;15.08;28.32;98731.44;4914450;29;20024;-49
2022/03/05 08:50:08;;;;;;;23.00;20.08;;;;;;;15.55;27.21;98726.19;4915590;29;20643;-50
2022/03/05 08:52:37;;;;;;;26.98;20.83;;;;;;;16.07;27.05;98728.06;4914401;29;20055;-49
2022/03/05 08:55:08;;;;;;;23.33;19.98;;;;;;;16.80;26.63;98720.34;4915658;29;20072;-50
2022/03/05 08:57:34;;;;;;;24.35;20.63;;;;;;;17.64;25.44;98718.72;4915710;29;20028;-50
2022/03/05 09:00:00;;;;;;;28.58;21.65;;;;;;;17.46;25.30;98717.16;4914278;29;20048;-50
2022/03/05 09:02:26;;;;;;;43.70;22.13;;;;;;;18.12;24.79;98712.69;4914328;29;20028;-50
2022/03/05 09:04:53;;;;;;;44.85;26.25;;;;;;;19.15;23.61;98718.97;4915542;29;20024;-50
2022/03/05 09:07:18;;;;;;;71.22;30.33;;;;;;;20.00;22.98;98715.44;4914213;29;20057;-50
2022/03/05 09:09:44;;;;;;;98.00;38.45;;;;;;;20.52;22.09;98710.00;4915442;29;20060;-50
2022/03/05 09:12:10;;;;;;;131.80;52.10;;;;;;;21.09;21.70;98707.38;4913898;29;20041;-50
2022/03/05 09:14:36;;;;;;;81.63;38.60;;;;;;;21.73;21.05;98712.06;4918691;29;20051;-50
2022/03/05 09:17:02;;;;;;;102.32;42.63;;;;;;;22.13;20.34;98715.63;4918065;29;20072;-50
2022/03/05 09:19:28;;;;;;;67.22;33.47;;;;;;;22.59;19.70;98714.56;4919289;29;20028;-50
2022/03/05 09:21:53;;;;;;;75.72;34.60;;;;;;;22.92;19.41;98715.66;4919207;29;20043;-50
2022/03/05 09:24:19;;;;;;;35.92;24.05;;;;;;;23.28;19.02;98712.69;4919258;29;20608;-50
2022/03/05 09:26:45;;;;;;;34.60;23.77;;;;;;;23.00;18.66;98713.44;4917913;29;20484;-51
2022/03/05 09:29:11;;;;;;;36.60;24.85;;;;;;;23.17;18.36;98715.72;4917849;29;20024;-51
2022/03/05 09:31:39;;;;;;;37.22;25.90;;;;;;;23.34;18.24;98716.06;4919081;29;20036;-51
2022/03/05 09:34:05;;;;;;;38.40;25.90;;;;;;;23.68;18.18;98705.28;4918935;29;20032;-50
2022/03/05 09:36:31;;;;;;;32.65;24.10;;;;;;;24.00;17.52;98708.41;4917656;29;20048;-51
2022/03/05 09:38:57;;;;;;;25.23;22.27;;;;;;;24.45;17.46;98714.22;4917650;29;20024;-50
2022/03/05 09:41:23;;;;;;;29.08;22.83;;;;;;;24.28;16.66;98709.38;4918900;29;20384;-50
2022/03/05 09:43:49;;;;;;;25.73;21.08;;;;;;;24.09;16.65;98699.44;4901906;29;20024;-50
2022/03/05 09:46:19;;;;;;;23.15;18.80;;;;;;;24.18;16.51;98704.94;4918845;29;20020;-50
2022/03/05 09:48:46;;;;;;;22.02;19.45;;;;;;;24.52;15.88;98706.63;4918736;29;20087;-50
2022/03/05 09:51:11;;;;;;;22.17;19.77;;;;;;;24.64;15.61;98701.59;4901754;29;20176;-50
2022/03/05 09:53:37;;;;;;;43.42;20.10;;;;;;;24.65;16.11;98703.22;4917335;29;20526;-51
2022/03/05 09:56:03;;;;;;;26.25;20.02;;;;;;;24.74;16.04;98702.53;4917352;29;20649;-50
2022/03/05 09:58:29;;;;;;;22.05;19.27;;;;;;;24.66;15.92;98695.94;4917365;29;20060;-51
2022/03/05 10:00:55;;;;;;;21.75;17.20;;;;;;;24.51;15.80;98692.41;4918535;29;20107;-50
2022/03/05 10:03:22;;;;;;;20.58;17.63;;;;;;;24.51;15.75;98694.31;4918467;29;20032;-50
2022/03/05 10:05:48;;;;;;;19.63;16.70;;;;;;;24.29;16.08;98695.66;4918400;29;20029;-50
2022/03/05 10:08:15;;;;;;;20.02;17.85;;;;;;;24.46;15.56;98679.03;4917126;29;20115;-50
2022/03/05 10:10:41;;;;;;;22.20;17.20;;;;;;;24.54;15.66;98685.66;4916688;29;20536;-50
2022/03/05 10:13:28;;;;;;;18.38;16.48;;;;;;;23.99;15.82;98682.69;4918402;29;20063;-50
2022/03/05 10:15:59;;;;;;;18.65;16.70;;;;;;;23.97;15.83;98676.81;4918337;29;20031;-50
2022/03/05 10:18:37;;;;;;;19.10;16.42;;;;;;;23.45;15.99;98681.97;4918388;29;20107;-50
2022/03/05 10:21:05;;;;;;;19.67;17.15;;;;;;;23.09;16.63;98677.78;4918290;29;20040;-51
2022/03/05 10:23:40;;;;;;;19.98;17.88;;;;;;;22.79;17.22;98680.69;4916848;29;20020;-50
2022/03/05 10:26:09;;;;;;;17.90;15.23;;;;;;;22.85;16.71;98674.22;4915681;29;20036;-50
2022/03/05 10:28:39;;;;;;;18.98;17.00;;;;;;;22.93;16.39;98682.44;4918074;29;20043;-51
2022/03/05 10:31:10;;;;;;;18.65;16.63;;;;;;;23.05;16.55;98686.66;4916705;29;20032;-50
2022/03/05 10:33:40;;;;;;;21.05;15.43;;;;;;;23.76;16.07;98684.28;4916686;29;20064;-50
2022/03/05 10:36:17;;;;;;;17.65;15.85;;;;;;;24.11;15.45;98686.53;4917957;29;20398;-51
2022/03/05 10:38:54;;;;;;;18.17;15.50;;;;;;;23.96;15.94;98686.72;4916656;29;20064;-51
2022/03/05 10:41:40;;;;;;;23.27;15.63;;;;;;;24.62;15.63;98684.22;4916553;29;20043;-50
2022/03/05 10:44:17;;;;;;;19.98;16.13;;;;;;;25.06;15.50;98682.94;4916568;29;20028;-51
2022/03/05 10:47:01;;;;;;;18.85;16.85;;;;;;;25.49;15.14;98683.50;4916501;29;20042;-51
2022/03/05 10:49:31;;;;;;;21.67;17.20;;;;;;;25.83;15.14;98687.66;4917712;29;20047;-51
2022/03/05 10:52:02;;;;;;;16.27;14.10;;;;;;;25.92;13.97;98677.03;4917669;29;20035;-50
2022/03/05 10:54:42;;;;;;;18.25;14.52;;;;;;;25.80;14.08;98688.28;4916315;29;20032;-50
2022/03/05 10:57:23;;;;;;;16.63;14.82;;;;;;;25.79;14.16;98672.44;4916292;29;20036;-51
2022/03/05 10:59:53;;;;;;;18.08;15.43;;;;;;;25.50;14.31;98681.63;4917568;29;20035;-50
2022/03/05 11:02:21;;;;;;;17.00;15.07;;;;;;;25.63;14.92;98678.09;4916246;29;20039;-51
2022/03/05 11:04:48;;;;;;;19.90;15.13;;;;;;;25.67;14.44;98676.41;4917404;29;20226;-50
2022/03/05 11:07:16;;;;;;;16.95;15.07;;;;;;;25.96;14.57;98679.88;4917375;29;20031;-51
2022/03/05 11:09:43;;;;;;;16.98;15.13;;;;;;;25.93;13.75;98678.59;4915936;29;20028;-51
2022/03/05 11:12:15;;;;;;;18.30;15.90;;;;;;;25.70;13.95;98677.72;4915752;29;20044;-51
2022/03/05 11:14:45;;;;;;;17.00;15.10;;;;;;;25.83;14.38;98678.78;4917295;29;20039;-51
2022/03/05 11:17:11;;;;;;;15.63;13.85;;;;;;;26.00;13.99;98667.47;4917469;29;20024;-50
2022/03/05 11:19:38;;;;;;;18.08;15.18;;;;;;;25.71;13.87;98669.34;4915856;29;20058;-51
2022/03/05 11:22:05;;;;;;;16.77;14.38;;;;;;;25.86;13.90;98659.38;4917120;29;20036;-51